ADDS METAR Data INFO
IDs: Format: Raw Decoded Include TAF

Data at: 0348 UTC 19 Feb 2018

KWDR 190335Z AUTO 09003KT 10SM SCT006 OVC016 15/13 A3033 RMK AO1
KWDR 190315Z AUTO 06003KT 10SM SCT006 OVC016 15/14 A3033 RMK AO1
KWDR 190255Z AUTO 09004KT 10SM SCT006 OVC018 15/14 A3033 RMK AO1
KWDR 190235Z AUTO 00000KT 10SM SCT006 OVC020 15/14 A3033 RMK AO1
KWDR 190215Z AUTO 10004KT 10SM BKN006 OVC018 15/14 A3033 RMK AO1
KWDR 190155Z AUTO 11003KT 4SM -DZ BKN006 OVC010 15/14 A3032 RMK AO1
KWDR 190130Z AUTO 00000KT 4SM -RA OVC014 15/14 A3032 RMK AO1
KWDR 190115Z AUTO 12004KT 5SM +RA OVC014 15/14 A3032 RMK AO1
KWDR 190055Z AUTO 13003KT 10SM -DZ OVC018 15/15 A3031 RMK AO1
KWDR 190030Z AUTO 00000KT 10SM -DZ OVC022 15/14 A3031 RMK AO1
KWDR 190015Z AUTO 00000KT 7SM RA OVC024 15/15 A3030 RMK AO1
KWDR 182355Z AUTO 00000KT 7SM +RA OVC028 16/14 A3030 RMK AO1
KWDR 182335Z AUTO 00000KT 10SM RA OVC030 16/14 A3029 RMK AO1
KWDR 182315Z AUTO 19003KT 10SM RA OVC032 18/12 A3028 RMK AO1
KWDR 182255Z AUTO 18004KT 10SM OVC034 18/12 A3027 RMK AO1
KWDR 182235Z AUTO 00000KT 10SM OVC036 19/12 A3027 RMK AO1
KWDR 182215Z AUTO 16004KT 10SM OVC038 20/11 A3026 RMK AO1
KWDR 182155Z AUTO 15003KT 10SM OVC040 20/11 A3026 RMK AO1
KWDR 182135Z AUTO 16004KT 10SM OVC044 20/11 A3025 RMK AO1
KWDR 182115Z AUTO 13008KT 10SM BKN040 OVC048 21/11 A3025 RMK AO1
KWDR 182055Z AUTO 15004KT 10SM OVC042 21/11 A3025 RMK AO1
KWDR 182035Z AUTO 17004KT 10SM SCT044 21/10 A3026 RMK AO1
KWDR 182015Z AUTO 17005KT 10SM SCT039 21/10 A3026 RMK AO1
KWDR 181955Z AUTO 12005KT 10SM SCT039 21/10 A3026 RMK AO1
KWDR 181935Z AUTO 12007KT 10SM SCT039 SCT120 21/10 A3026 RMK AO1
KWDR 181915Z AUTO 13008KT 10SM SCT039 SCT120 21/10 A3026 RMK AO1
KWDR 181855Z AUTO 11003KT 10SM CLR 20/10 A3027 RMK AO1
KWDR 181835Z AUTO 13006KT 10SM CLR 20/10 A3028 RMK AO1
KWDR 181815Z AUTO 00000KT 10SM CLR 20/09 A3029 RMK AO1
KWDR 181755Z AUTO 12003KT 10SM CLR 20/09 A3029 RMK AO1
KWDR 181735Z AUTO 13004KT 10SM CLR 19/09 A3030 RMK AO1
KWDR 181715Z AUTO 00000KT 10SM CLR 19/08 A3031 RMK AO1
KWDR 181655Z AUTO 09003KT 10SM CLR 18/08 A3031 RMK AO1
KWDR 181635Z AUTO 08005KT 10SM CLR 18/08 A3032 RMK AO1
KWDR 181615Z AUTO 07004KT 10SM CLR 17/08 A3032 RMK AO1
KWDR 181555Z AUTO 07004KT 10SM CLR 16/08 A3032 RMK AO1
KWDR 181535Z AUTO 06004KT 10SM CLR 16/08 A3031 RMK AO1
KWDR 181515Z AUTO 04003KT 10SM CLR 15/08 A3031 RMK AO1
KWDR 181455Z AUTO 02003KT 10SM CLR 14/08 A3030 RMK AO1
KWDR 181435Z AUTO 02003KT 10SM CLR 13/08 A3029 RMK AO1
KWDR 181415Z AUTO 01004KT 10SM CLR 13/08 A3028 RMK AO1
KWDR 181355Z AUTO 34004KT 10SM CLR 12/08 A3027 RMK AO1
KWDR 181335Z AUTO 33004KT 10SM CLR 12/08 A3027 RMK AO1
KWDR 181315Z AUTO 31004KT 10SM CLR 11/08 A3026 RMK AO1
KWDR 181255Z AUTO 30003KT 10SM CLR 11/09 A3025 RMK AO1
KWDR 181235Z AUTO 31004KT 10SM CLR 10/08 A3024 RMK AO1
KWDR 181215Z AUTO 29003KT 10SM CLR 10/08 A3023 RMK AO1
KWDR 181155Z AUTO 29003KT 10SM CLR 10/08 A3023 RMK AO1
KWDR 181135Z AUTO 30004KT 10SM CLR 10/08 A3022 RMK AO1
KWDR 181115Z AUTO 31005KT 10SM CLR 11/09 A3022 RMK AO1
KWDR 181055Z AUTO 31005KT 10SM CLR 11/09 A3021 RMK AO1
KWDR 181035Z AUTO 32005KT 10SM CLR 12/10 A3021 RMK AO1
KWDR 181015Z AUTO 31006KT 10SM SCT055 12/10 A3020 RMK AO1
KWDR 180955Z AUTO 31006KT 10SM BKN055 13/10 A3020 RMK AO1
KWDR 180935Z AUTO 31007KT 10SM BKN055 13/10 A3019 RMK AO1
KWDR 180915Z AUTO 31008KT 10SM SCT065 SCT070 13/11 A3018 RMK AO1
KWDR 180855Z AUTO 31006KT 10SM SCT065 BKN075 13/11 A3017 RMK AO1
KWDR 180835Z AUTO 30004KT 10SM BKN065 BKN075 14/11 A3016 RMK AO1
KWDR 180815Z AUTO 31006KT 10SM SCT039 BKN075 15/11 A3016 RMK AO1
KWDR 180755Z AUTO 30006KT 10SM OVC039 15/11 A3015 RMK AO1
KWDR 180735Z AUTO 31008KT 10SM OVC037 15/11 A3015 RMK AO1
KWDR 180715Z AUTO 30009KT 10SM OVC035 16/12 A3016 RMK AO1
KWDR 180655Z AUTO 31011KT 10SM OVC035 16/13 A3016 RMK AO1
KWDR 180635Z AUTO 30009KT 10SM SCT016 OVC035 16/13 A3015 RMK AO1
KWDR 180615Z AUTO 30006KT 10SM BKN016 OVC035 16/14 A3014 RMK AO1
KWDR 180555Z AUTO 30004KT 10SM SCT016 OVC035 16/14 A3013 RMK AO1
KWDR 180535Z AUTO 28004KT 10SM OVC033 16/14 A3014 RMK AO1
KWDR 180515Z AUTO 29004KT 10SM SCT027 OVC033 15/14 A3014 RMK AO1
KWDR 180455Z AUTO 00000KT 10SM SCT025 BKN031 OVC110 15/13 A3014 RMK AO1
KWDR 180435Z AUTO 00000KT 10SM SCT029 OVC110 15/13 A3013 RMK AO1
KWDR 180415Z AUTO 26006KT 10SM SCT014 BKN039 BKN110 15/13 A3014 RMK AO1
KWDR 180355Z AUTO 30005KT 10SM SCT014 BKN029 OVC040 13/12 A3015 RMK AO1
KWDR 180335Z AUTO 28004KT 10SM BKN036 OVC044 13/12 A3015 RMK AO1
KWDR 180315Z AUTO 00000KT 7SM BKN039 BKN047 BKN060 12/11 A3015 RMK AO1
KWDR 180255Z AUTO 00000KT 7SM SCT036 BKN044 OVC060 12/11 A3014 RMK AO1
KWDR 180235Z AUTO 00000KT 7SM -DZ SCT005 BKN041 OVC048 12/11 A3014 RMK AO1
KWDR 180215Z AUTO 35014KT 7SM BKN048 OVC065 12/11 A3014 RMK AO1
KWDR 180155Z AUTO 00000KT 10SM SCT050 BKN065 OVC075 12/11 A3011 RMK AO1
KWDR 180135Z AUTO 00000KT 10SM SCT060 OVC075 12/11 A3011 RMK AO1
KWDR 180115Z AUTO 00000KT 10SM BKN060 BKN090 12/11 A3011 RMK AO1
KWDR 180055Z AUTO 00000KT 10SM BKN090 12/11 A3010 RMK AO1
KWDR 180035Z AUTO 00000KT 10SM SCT060 OVC090 12/11 A3010 RMK AO1
KWDR 180015Z AUTO 00000KT 10SM BKN060 BKN070 OVC080 12/11 A3010 RMK AO1
KWDR 172355Z AUTO 00000KT 10SM BKN070 OVC080 12/11 A3011 RMK AO1
KWDR 172335Z AUTO 00000KT 10SM OVC075 13/11 A3010 RMK AO1
KWDR 172315Z AUTO 02003KT 10SM BKN075 13/11 A3010 RMK AO1
KWDR 172255Z AUTO 02003KT 10SM CLR 13/11 A3009 RMK AO1
KWDR 172235Z AUTO 00000KT 10SM SCT007 SCT065 SCT080 13/11 A3008 RMK AO1
KWDR 172215Z AUTO 00000KT 10SM SCT009 SCT065 BKN080 14/11 A3010 RMK AO1
KWDR 172155Z AUTO 07004KT 10SM SCT009 15/11 A3011 RMK AO1
KWDR 172135Z AUTO 08003KT 10SM SCT060 SCT075 SCT085 15/11 A3010 RMK AO1
KWDR 172115Z AUTO 03003KT 10SM SCT007 SCT075 BKN085 14/11 A3011 RMK AO1
KWDR 172055Z AUTO 04005KT 10SM SCT007 SCT028 BKN075 15/12 A3011 RMK AO1
KWDR 172035Z AUTO 02006KT 10SM -RA SCT007 BKN075 OVC080 15/12 A3012 RMK AO1
KWDR 172015Z AUTO 00000KT 10SM SCT042 BKN080 OVC095 15/12 A3011 RMK AO1
KWDR 171955Z AUTO 01005KT 10SM SCT009 BKN055 OVC090 15/12 A3012 RMK AO1
KWDR 171935Z AUTO 03005KT 10SM BKN009 BKN055 OVC090 15/12 A3013 RMK AO1
KWDR 171915Z AUTO 01004KT 10SM OVC009 15/12 A3014 RMK AO1
KWDR 171855Z AUTO 00000KT 10SM OVC009 15/12 A3015 RMK AO1
KWDR 171835Z AUTO 00000KT 10SM OVC007 14/12 A3015 RMK AO1
KWDR 171815Z AUTO 00000KT 10SM OVC007 13/11 A3016 RMK AO1
KWDR 171755Z AUTO 00000KT 10SM OVC005 13/11 A3017 RMK AO1
KWDR 171735Z AUTO 04004KT 10SM OVC005 12/11 A3017 RMK AO1
KWDR 171715Z AUTO 00000KT 10SM OVC005 12/11 A3017 RMK AO1
KWDR 171655Z AUTO 08003KT 10SM OVC005 12/11 A3018 RMK AO1
KWDR 171635Z AUTO 08003KT 10SM OVC005 12/11 A3019 RMK AO1
KWDR 171615Z AUTO 07004KT 10SM -RA BKN005 OVC015 12/11 A3019 RMK AO1
KWDR 171555Z AUTO 04004KT 10SM DZ BKN005 OVC016 12/11 A3019 RMK AO1